Time;durP1;ratioP1;P1;durP2;ratioP2;P2;SDS_P1;SDS_P2;PMS_P1;PMS_P2;Temp;Humidity;BMP_temperature;BMP_pressure;BME280_temperature;BME280_humidity;BME280_pressure;Samples;Min_cycle;Max_cycle;Signal;HPM_P1;HPM_P2
2024/02/09 00:01:11;;;;;;;1999.90;999.90;;;;;;;8.64;100.00;98761.22;10218350;29;20132;-68
2024/02/09 00:06:13;;;;;;;1999.90;999.90;;;;;;;8.91;100.00;98759.91;10218819;29;20127;-68
2024/02/09 00:11:17;;;;;;;1999.90;999.90;;;;;;;8.93;100.00;98747.56;10217381;29;20062;-68
2024/02/09 00:16:20;;;;;;;1999.90;999.90;;;;;;;8.77;100.00;98732.34;10217774;29;20489;-68
2024/02/09 00:21:23;;;;;;;1999.90;999.90;;;;;;;9.24;100.00;98730.13;10216375;29;20415;-68
2024/02/09 00:26:25;;;;;;;1999.90;999.90;;;;;;;8.82;100.00;98731.97;10217140;29;20051;-68
2024/02/09 00:31:27;;;;;;;1999.90;999.90;;;;;;;8.83;100.00;98721.41;10216550;29;20131;-68
2024/02/09 00:36:33;;;;;;;1999.90;999.90;;;;;;;8.83;100.00;98721.41;10217001;29;20415;-68
2024/02/09 00:41:35;;;;;;;1999.90;999.90;;;;;;;9.02;100.00;98718.06;10217443;29;20086;-68
2024/02/09 00:46:42;;;;;;;1999.90;999.90;;;;;;;9.43;100.00;98700.69;10217233;29;20079;-68
2024/02/09 00:51:45;;;;;;;1999.90;999.90;;;;;;;9.29;100.00;98685.34;10215865;29;20063;-68
2024/02/09 00:56:48;;;;;;;1999.90;999.90;;;;;;;8.81;100.00;98676.34;10216833;29;20056;-68
2024/02/09 01:01:53;;;;;;;1999.90;999.90;;;;;;;8.90;100.00;98678.16;10216624;29;20051;-68
2024/02/09 01:07:06;;;;;;;1999.90;999.90;;;;;;;8.94;100.00;98670.91;10215855;29;20495;-68
2024/02/09 03:04:49;;;;;;;1999.90;999.90;;;;;;;9.45;100.00;98489.81;10221099;29;20058;-68
2024/02/09 03:09:51;;;;;;;1999.90;999.90;;;;;;;9.39;100.00;98479.06;10220827;29;20052;-68
2024/02/09 03:14:54;;;;;;;1999.90;999.90;;;;;;;9.31;100.00;98484.97;10220728;29;20098;-68
2024/02/09 03:20:00;;;;;;;1999.90;999.90;;;;;;;9.28;100.00;98485.25;10219339;29;20083;-68
2024/02/09 03:25:04;;;;;;;1999.90;999.90;;;;;;;9.26;100.00;98461.06;10220325;29;20103;-68
2024/02/09 03:30:08;;;;;;;1999.90;999.90;;;;;;;9.30;100.00;98449.41;10219455;29;20483;-68
2024/02/09 03:35:12;;;;;;;1999.90;999.90;;;;;;;9.35;100.00;98459.44;10219972;29;20136;-68
2024/02/09 03:40:14;;;;;;;1999.90;999.90;;;;;;;9.42;100.00;98447.47;10218246;29;20513;-68
2024/02/09 03:45:17;;;;;;;1999.90;999.90;;;;;;;9.42;100.00;98440.44;10218466;29;20055;-68
2024/02/09 03:50:19;;;;;;;1999.90;999.90;;;;;;;9.34;100.00;98436.88;10219359;29;20059;-68
2024/02/09 03:55:22;;;;;;;1999.90;999.90;;;;;;;9.34;100.00;98439.50;10218710;29;20055;-68
2024/02/09 04:00:24;;;;;;;1999.90;999.90;;;;;;;9.32;100.00;98436.19;10218898;29;20048;-68
2024/02/09 04:05:27;;;;;;;1999.90;999.90;;;;;;;9.24;100.00;98424.63;10218857;29;20052;-68
2024/02/09 04:10:36;;;;;;;1999.90;999.90;;;;;;;9.36;100.00;98422.72;10218023;29;20054;-68
2024/02/09 04:15:46;;;;;;;1999.90;999.90;;;;;;;9.28;100.00;98410.34;10218568;29;20062;-68
2024/02/09 04:20:49;;;;;;;1999.90;999.90;;;;;;;9.19;100.00;98415.56;10216490;29;20554;-68
2024/02/09 04:25:52;;;;;;;1999.90;999.90;;;;;;;9.25;100.00;98415.84;10218110;29;20054;-68
2024/02/09 04:30:54;;;;;;;1999.90;999.90;;;;;;;9.43;100.00;98409.91;10216688;29;20054;-68
2024/02/09 04:35:58;;;;;;;1999.90;999.90;;;;;;;9.30;100.00;98411.03;10217114;29;20070;-68
2024/02/09 04:41:01;;;;;;;1999.90;999.90;;;;;;;9.38;100.00;98407.75;10216871;29;20086;-68
2024/02/09 04:46:03;;;;;;;1999.90;999.90;;;;;;;9.37;100.00;98398.25;10200490;29;20127;-68
2024/02/09 04:51:06;;;;;;;1999.90;999.90;;;;;;;9.40;100.00;98399.78;10216397;29;20052;-68
2024/02/09 04:56:11;;;;;;;1999.90;999.90;;;;;;;9.29;100.00;98392.91;10215057;29;20067;-68
2024/02/09 05:01:29;;;;;;;1999.90;999.90;;;;;;;9.38;100.00;98386.84;10216698;29;20048;-68
2024/02/09 05:06:31;;;;;;;1999.90;999.90;;;;;;;9.45;100.00;98392.34;10215432;29;20059;-68
2024/02/09 05:11:36;;;;;;;1999.90;999.90;;;;;;;9.47;100.00;98387.81;10198342;29;20416;-68
2024/02/09 05:16:38;;;;;;;1999.90;999.90;;;;;;;9.38;100.00;98379.03;10215037;29;20065;-68
2024/02/09 05:21:44;;;;;;;1999.90;999.90;;;;;;;9.52;100.00;98380.38;10214894;29;20141;-68
2024/02/09 05:26:46;;;;;;;1999.90;999.90;;;;;;;9.49;100.00;98373.63;10215783;29;20051;-68
2024/02/09 05:31:49;;;;;;;1999.90;999.90;;;;;;;9.47;100.00;98359.06;10215637;29;20079;-68
2024/02/09 05:36:53;;;;;;;1999.90;999.90;;;;;;;9.44;100.00;98354.13;10214886;29;20109;-68
2024/02/09 05:41:55;;;;;;;1999.90;999.90;;;;;;;9.37;100.00;98359.09;10215380;29;20127;-68
2024/02/09 05:46:58;;;;;;;1999.90;999.90;;;;;;;9.25;100.00;98358.41;10215222;29;20047;-68
2024/02/09 05:52:00;;;;;;;1999.90;999.90;;;;;;;9.28;100.00;98352.09;10214397;29;20131;-68
2024/02/09 05:57:03;;;;;;;1999.90;999.90;;;;;;;9.47;100.00;98343.41;10214958;29;20052;-68
2024/02/09 06:02:06;;;;;;;1999.90;999.90;;;;;;;9.48;100.00;98348.47;10214838;29;20044;-68
2024/02/09 06:07:08;;;;;;;1999.90;999.90;;;;;;;9.47;100.00;98349.44;10212972;29;20446;-68
2024/02/09 06:12:13;;;;;;;1999.90;999.90;;;;;;;9.39;100.00;98348.50;10197695;29;20103;-68
2024/02/09 06:17:16;;;;;;;1999.90;999.90;;;;;;;9.34;100.00;98342.88;10214602;29;20051;-68
2024/02/09 06:22:19;;;;;;;1999.90;999.90;;;;;;;9.32;100.00;98342.19;10217926;29;20082;-68
2024/02/09 06:27:22;;;;;;;1999.90;999.90;;;;;;;9.34;100.00;98337.66;10220749;29;20518;-68
2024/02/09 06:32:26;;;;;;;1999.90;999.90;;;;;;;9.35;100.00;98336.69;10222267;29;20043;-68
2024/02/09 06:37:29;;;;;;;1999.90;999.90;;;;;;;9.46;100.00;98332.13;10222186;29;20135;-68
2024/02/09 06:42:32;;;;;;;1999.90;999.90;;;;;;;9.42;100.00;98341.19;10221909;29;20059;-68
2024/02/09 06:47:35;;;;;;;1999.90;999.90;;;;;;;9.23;100.00;98326.41;10221127;29;20055;-68
2024/02/09 06:52:40;;;;;;;1999.90;999.90;;;;;;;9.32;100.00;98334.38;10219564;29;20504;-68
2024/02/09 06:57:44;;;;;;;1999.90;999.90;;;;;;;9.33;100.00;98333.38;10221484;29;20055;-68
2024/02/09 07:02:47;;;;;;;1999.90;999.90;;;;;;;9.32;100.00;98329.94;10220054;29;20055;-68
2024/02/09 07:07:52;;;;;;;1999.90;999.90;;;;;;;9.35;100.00;98334.09;10220955;29;20067;-68
2024/02/09 07:12:54;;;;;;;1999.90;999.90;;;;;;;9.33;100.00;98336.00;10221437;29;20079;-68
2024/02/09 07:17:57;;;;;;;1999.90;999.90;;;;;;;9.38;100.00;98332.00;10220203;29;20412;-68
2024/02/09 07:22:59;;;;;;;1999.90;999.90;;;;;;;9.53;100.00;98336.78;10218811;29;20059;-68
2024/02/09 07:28:02;;;;;;;1999.90;999.90;;;;;;;9.40;100.00;98339.72;10219587;29;20086;-68
2024/02/09 07:33:04;;;;;;;1999.90;999.90;;;;;;;9.57;100.00;98346.00;10218951;29;20051;-68
2024/02/09 07:38:07;;;;;;;1999.90;999.90;;;;;;;9.52;100.00;98349.03;10218786;29;20048;-68
2024/02/09 07:43:09;;;;;;;1999.90;999.90;;;;;;;9.71;100.00;98344.72;10219125;29;20422;-68
2024/02/09 07:48:12;;;;;;;1999.90;999.90;;;;;;;9.58;100.00;98342.41;10218938;29;20107;-68
2024/02/09 07:53:14;;;;;;;1999.90;999.90;;;;;;;9.58;100.00;98338.00;10219084;29;20064;-68
2024/02/09 07:58:17;;;;;;;1999.90;999.90;;;;;;;9.45;100.00;98346.16;10217439;29;20067;-68
2024/02/09 08:03:20;;;;;;;1999.90;999.90;;;;;;;9.51;100.00;98349.97;10217111;29;20155;-68
2024/02/09 08:08:24;;;;;;;1999.90;999.90;;;;;;;9.69;100.00;98346.66;10218747;29;20086;-68
2024/02/09 08:13:27;;;;;;;1999.90;999.90;;;;;;;9.64;100.00;98350.50;10218604;29;20058;-68
2024/02/09 08:18:31;;;;;;;1999.90;999.90;;;;;;;9.80;100.00;98359.53;10218391;29;20051;-68
2024/02/09 08:23:34;;;;;;;1999.90;999.90;;;;;;;9.76;100.00;98343.31;10217589;29;20055;-68
2024/02/09 08:28:47;;;;;;;1999.90;999.90;;;;;;;9.90;100.00;98356.88;10218002;29;20095;-68
2024/02/09 08:33:50;;;;;;;1999.90;999.90;;;;;;;9.93;100.00;98346.94;10217847;29;20093;-68
2024/02/09 08:38:52;;;;;;;1999.90;999.90;;;;;;;10.08;100.00;98346.50;10217598;29;20079;-68
2024/02/09 08:43:55;;;;;;;1999.90;999.90;;;;;;;9.95;100.00;98338.97;10214230;29;20052;-67
2024/02/09 08:48:57;;;;;;;1999.90;999.90;;;;;;;9.93;100.00;98344.34;10210781;29;20062;-68
2024/02/09 08:54:01;;;;;;;1999.90;999.90;;;;;;;9.96;100.00;98346.66;10216264;29;20059;-67
2024/02/09 08:59:06;;;;;;;1999.90;999.90;;;;;;;10.32;100.00;98338.97;10181227;29;20040;-67
2024/02/09 09:04:13;;;;;;;1999.90;999.90;;;;;;;11.18;100.00;98327.16;10215325;29;20122;-66
2024/02/09 09:09:18;;;;;;;1999.90;999.90;;;;;;;10.90;100.00;98326.44;10186947;29;20139;-66
2024/02/09 09:14:20;;;;;;;1999.90;999.90;;;;;;;10.58;100.00;98336.44;10210966;29;20482;-66
2024/02/09 09:19:22;;;;;;;1999.90;999.90;;;;;;;10.64;100.00;98336.81;10209281;29;20054;-66
2024/02/09 09:24:25;;;;;;;1999.90;999.90;;;;;;;10.89;100.00;98340.50;10182247;29;20051;-66
2024/02/09 09:29:28;;;;;;;1999.90;999.90;;;;;;;10.89;100.00;98340.50;10194794;29;20500;-65
2024/02/09 09:34:32;;;;;;;1999.90;999.90;;;;;;;10.80;100.00;98339.59;10208117;29;20059;-66
2024/02/09 09:39:35;;;;;;;1999.90;999.90;;;;;;;10.74;100.00;98348.03;10210496;29;20396;-65
2024/02/09 09:44:38;;;;;;;1999.90;999.90;;;;;;;10.63;100.00;98362.19;10177097;29;20055;-66
2024/02/09 09:49:43;;;;;;;1999.90;999.90;;;;;;;10.59;100.00;98363.44;10210298;29;20534;-66
2024/02/09 09:54:48;;;;;;;1999.90;999.90;;;;;;;10.83;100.00;98359.44;10204518;29;20440;-65
2024/02/09 09:59:53;;;;;;;1999.90;999.90;;;;;;;11.04;100.00;98357.31;10206854;29;20414;-65
2024/02/09 10:04:58;;;;;;;1999.90;999.90;;;;;;;11.04;100.00;98343.41;10207965;29;20128;-65
2024/02/09 10:10:00;;;;;;;1999.90;999.90;;;;;;;11.53;100.00;98354.25;10214224;29;20411;-65
2024/02/09 10:15:04;;;;;;;1999.90;999.90;;;;;;;11.63;100.00;98354.16;10214734;29;20086;-67
2024/02/09 10:20:11;;;;;;;1999.90;999.90;;;;;;;11.39;100.00;98354.81;10214664;29;20059;-65
2024/02/09 10:25:15;;;;;;;1999.90;999.90;;;;;;;11.44;100.00;98363.03;10213426;29;20131;-65
2024/02/09 10:30:18;;;;;;;1999.90;999.90;;;;;;;11.52;100.00;98369.16;10213744;29;20063;-65
2024/02/09 10:35:20;;;;;;;1999.90;999.90;;;;;;;11.52;100.00;98366.53;10214366;29;20526;-66
2024/02/09 10:40:24;;;;;;;1999.90;999.90;;;;;;;11.52;100.00;98360.47;10214264;29;20055;-65
2024/02/09 10:45:27;;;;;;;1999.90;999.90;;;;;;;11.42;100.00;98365.00;10213537;29;20051;-65
2024/02/09 10:50:30;;;;;;;1999.90;999.90;;;;;;;11.58;100.00;98361.66;10212226;29;20475;-65
2024/02/09 10:55:41;;;;;;;1999.90;999.90;;;;;;;11.65;100.00;98357.44;10213138;29;20419;-71
2024/02/09 11:00:44;;;;;;;1999.90;999.90;;;;;;;11.75;100.00;98354.72;10212823;29;20055;-75
2024/02/09 11:05:46;;;;;;;1999.90;999.90;;;;;;;11.59;100.00;98368.53;10212068;29;20138;-74
2024/02/09 11:11:03;;;;;;;1999.90;999.90;;;;;;;11.42;100.00;98370.25;10218826;29;20509;-74
2024/02/09 11:16:07;;;;;;;1999.90;999.90;;;;;;;11.65;100.00;98362.66;10219669;29;20055;-76
2024/02/09 11:21:11;;;;;;;1999.90;999.90;;;;;;;11.48;100.00;98354.72;10219011;29;20187;-75
2024/02/09 11:26:15;;;;;;;1999.90;999.90;;;;;;;11.71;100.00;98364.69;10220442;29;20103;-75
2024/02/09 11:31:19;;;;;;;1999.90;999.90;;;;;;;11.84;100.00;98362.47;10220182;29;20047;-75
2024/02/09 11:36:21;;;;;;;1999.90;999.90;;;;;;;11.82;100.00;98351.31;10218890;29;20048;-68
2024/02/09 11:41:28;;;;;;;1999.90;999.90;;;;;;;11.98;100.00;98361.09;10219247;29;20460;-68
2024/02/09 11:46:30;;;;;;;1999.90;999.90;;;;;;;11.97;100.00;98371.72;10219100;29;20436;-68
2024/02/09 11:51:36;;;;;;;1999.90;999.90;;;;;;;11.99;100.00;98360.13;10219110;29;20047;-68
2024/02/09 11:56:41;;;;;;;1999.90;999.90;;;;;;;12.39;100.00;98366.50;10218650;29;20060;-68
2024/02/09 12:01:44;;;;;;;1999.90;999.90;;;;;;;12.72;100.00;98357.91;10216731;29;20075;-66
2024/02/09 12:06:46;;;;;;;1999.90;999.90;;;;;;;12.63;100.00;98351.81;10234047;23;20051;-66
2024/02/09 12:11:50;;;;;;;1999.90;999.90;;;;;;;12.47;100.00;98364.88;10217655;29;20292;-68
2024/02/09 12:16:52;;;;;;;1999.90;999.90;;;;;;;12.54;100.00;98358.84;10218642;29;20087;-68
2024/02/09 12:21:54;;;;;;;1999.90;999.90;;;;;;;12.63;100.00;98368.38;10201431;29;20052;-68
2024/02/09 12:26:59;;;;;;;1999.90;999.90;;;;;;;12.49;100.00;98369.00;10200763;29;20103;-68
2024/02/09 12:32:04;;;;;;;1999.90;999.90;;;;;;;12.57;100.00;98376.06;10217911;29;20054;-68
2024/02/09 12:37:09;;;;;;;1999.90;999.90;;;;;;;12.25;100.00;98386.31;10217796;29;20087;-68
2024/02/09 12:42:11;;;;;;;1999.90;999.90;;;;;;;12.34;100.00;98387.16;10215849;29;20052;-68
2024/02/09 12:47:14;;;;;;;1999.90;999.90;;;;;;;12.38;100.00;98385.84;10216812;29;20051;-68
2024/02/09 12:52:19;;;;;;;1999.90;999.90;;;;;;;13.30;100.00;98385.06;10217110;29;20127;-68
2024/02/09 12:57:22;;;;;;;1999.90;999.90;;;;;;;13.09;100.00;98377.63;10216462;29;20495;-68
2024/02/09 13:02:24;;;;;;;1999.90;999.90;;;;;;;12.83;100.00;98392.53;10215701;29;20079;-68
2024/02/09 13:07:27;;;;;;;1999.90;999.90;;;;;;;12.91;100.00;98391.75;10215823;29;20404;-68
2024/02/09 13:12:37;;;;;;;1999.90;999.90;;;;;;;12.83;100.00;98378.59;10215280;29;20103;-68
2024/02/09 13:17:39;;;;;;;1999.90;999.90;;;;;;;12.81;100.00;98383.19;10215261;29;20102;-68
2024/02/09 13:22:44;;;;;;;1999.90;999.90;;;;;;;12.48;100.00;98382.28;10216086;29;20051;-68
2024/02/09 13:27:47;;;;;;;1999.90;999.90;;;;;;;12.53;100.00;98386.06;10214845;29;20106;-68
2024/02/09 13:32:50;;;;;;;1999.90;999.90;;;;;;;12.77;100.00;98390.56;10215396;29;20078;-68
2024/02/09 13:37:52;;;;;;;1999.90;999.90;;;;;;;12.35;100.00;98388.78;10215593;29;20054;-68
2024/02/09 13:42:55;;;;;;;1999.90;999.90;;;;;;;12.36;100.00;98387.00;10214323;29;20044;-68
2024/02/09 13:47:59;;;;;;;1999.90;999.90;;;;;;;12.51;100.00;98390.66;10215268;29;20090;-68
2024/02/09 13:53:01;;;;;;;1999.90;999.90;;;;;;;12.39;100.00;98387.50;10214509;29;20507;-68
2024/02/09 13:58:07;;;;;;;1999.90;999.90;;;;;;;12.26;100.00;98395.81;10215052;29;20130;-68
2024/02/09 14:03:09;;;;;;;1999.90;999.90;;;;;;;12.54;100.00;98381.63;10215045;29;20047;-68
2024/02/09 14:08:11;;;;;;;1999.90;999.90;;;;;;;12.58;100.00;98382.97;10213286;29;20490;-68
2024/02/09 14:13:14;;;;;;;1999.90;999.90;;;;;;;12.48;100.00;98388.34;10214728;29;20058;-68
2024/02/09 14:18:18;;;;;;;1999.90;999.90;;;;;;;12.51;100.00;98377.53;10213520;29;20051;-68
2024/02/09 14:23:21;;;;;;;1999.90;999.90;;;;;;;12.55;100.00;98372.78;10214047;29;20051;-68
2024/02/09 14:28:24;;;;;;;1999.90;999.90;;;;;;;12.71;100.00;98378.09;10213837;29;20047;-68
2024/02/09 14:33:27;;;;;;;1999.90;999.90;;;;;;;12.73;100.00;98370.06;10213190;29;20044;-68
2024/02/09 14:38:29;;;;;;;1999.90;999.90;;;;;;;12.55;100.00;98376.22;10214268;29;20121;-68
2024/02/09 14:43:33;;;;;;;1999.90;999.90;;;;;;;12.58;100.00;98380.34;10216736;29;20051;-68
2024/02/09 14:48:36;;;;;;;1999.90;999.90;;;;;;;12.48;100.00;98377.03;10221930;29;20052;-68
2024/02/09 14:53:39;;;;;;;1999.90;999.90;;;;;;;12.33;100.00;98369.75;10221003;29;20079;-68
2024/02/09 14:58:42;;;;;;;1999.90;999.90;;;;;;;12.45;100.00;98373.72;10221522;29;20130;-68
2024/02/09 15:03:46;;;;;;;1999.90;999.90;;;;;;;12.79;100.00;98380.72;10204914;29;20051;-68
2024/02/09 15:08:50;;;;;;;1999.90;999.90;;;;;;;12.65;100.00;98378.72;10220489;29;20516;-69
2024/02/09 15:13:53;;;;;;;1999.90;999.90;;;;;;;12.62;100.00;98390.38;10220945;29;20107;-68
2024/02/09 15:18:55;;;;;;;1999.90;999.90;;;;;;;12.64;100.00;98393.66;10220504;29;20506;-68
2024/02/09 15:23:58;;;;;;;1999.90;999.90;;;;;;;12.84;100.00;98398.59;10220646;29;20134;-68
2024/02/09 15:29:01;;;;;;;1999.90;999.90;;;;;;;12.57;100.00;98395.25;10220320;29;20058;-68
2024/02/09 15:34:09;;;;;;;1999.90;999.90;;;;;;;12.63;100.00;98396.44;10220294;29;20559;-68
2024/02/09 15:39:15;;;;;;;1999.90;999.90;;;;;;;12.68;100.00;98383.66;10220121;29;20052;-68
2024/02/09 15:44:18;;;;;;;1999.90;999.90;;;;;;;12.39;100.00;98386.66;10218679;29;20058;-68
2024/02/09 15:49:21;;;;;;;1999.90;999.90;;;;;;;12.31;100.00;98391.91;10219603;29;20052;-68
2024/02/09 15:54:23;;;;;;;1999.90;999.90;;;;;;;12.22;100.00;98388.41;10218442;29;20491;-68
2024/02/09 15:59:25;;;;;;;1999.90;999.90;;;;;;;12.04;100.00;98383.25;10219339;29;20054;-68
2024/02/09 16:04:28;;;;;;;1999.90;999.90;;;;;;;12.05;100.00;98372.63;10218503;29;20081;-68
2024/02/09 16:09:31;;;;;;;1999.90;999.90;;;;;;;12.10;100.00;98380.00;10217447;29;20087;-68
2024/02/09 16:14:33;;;;;;;1999.90;999.90;;;;;;;11.93;100.00;98375.66;10201314;29;20131;-68
2024/02/09 16:19:36;;;;;;;1999.90;999.90;;;;;;;11.92;100.00;98371.38;10217959;29;20407;-68
2024/02/09 16:24:39;;;;;;;1999.90;999.90;;;;;;;11.94;100.00;98374.69;10218216;29;20099;-68
2024/02/09 16:29:41;;;;;;;1999.90;999.90;;;;;;;12.15;100.00;98377.72;10218262;29;20054;-68
2024/02/09 16:34:45;;;;;;;1999.90;999.90;;;;;;;11.92;100.00;98379.25;10217349;29;20500;-68
2024/02/09 16:39:50;;;;;;;1999.90;999.90;;;;;;;11.73;100.00;98378.44;10217159;29;20062;-68
2024/02/09 16:44:53;;;;;;;1999.90;999.90;;;;;;;11.73;100.00;98388.13;10216851;29;20448;-68
2024/02/09 16:49:55;;;;;;;1999.90;999.90;;;;;;;11.53;100.00;98389.16;10214294;29;20044;-68
2024/02/09 16:55:00;;;;;;;1999.90;999.90;;;;;;;11.42;100.00;98393.81;10217165;29;20089;-68
2024/02/09 17:00:04;;;;;;;1999.90;999.90;;;;;;;11.43;100.00;98395.44;10215883;29;20048;-68
2024/02/09 17:05:07;;;;;;;1999.90;999.90;;;;;;;11.30;100.00;98390.63;10216106;29;20056;-68
2024/02/09 17:10:09;;;;;;;1999.90;999.90;;;;;;;11.19;100.00;98390.84;10214597;29;20055;-68
2024/02/09 17:15:15;;;;;;;1999.90;999.90;;;;;;;11.30;100.00;98390.63;10214645;29;20122;-68
2024/02/09 17:20:17;;;;;;;1999.90;999.90;;;;;;;11.11;100.00;98404.66;10216240;29;20058;-67
2024/02/09 17:25:20;;;;;;;1999.90;999.90;;;;;;;11.09;100.00;98419.72;10216008;29;20056;-68
2024/02/09 17:30:22;;;;;;;1999.90;999.90;;;;;;;11.14;100.00;98409.63;10215808;29;20051;-68
2024/02/09 17:35:26;;;;;;;1999.90;999.90;;;;;;;10.86;100.00;98420.16;10215714;29;20126;-68
2024/02/09 17:40:29;;;;;;;1999.90;999.90;;;;;;;10.99;100.00;98419.78;10215578;29;20079;-68
2024/02/09 17:45:35;;;;;;;1999.90;999.90;;;;;;;10.87;100.00;98420.97;10215453;29;20060;-68
2024/02/09 17:50:38;;;;;;;1999.90;999.90;;;;;;;10.72;100.00;98425.88;10215042;29;20054;-68
2024/02/09 17:55:40;;;;;;;1999.90;999.90;;;;;;;11.06;100.00;98433.09;10214534;29;20052;-68
2024/02/09 18:00:42;;;;;;;1999.90;999.90;;;;;;;10.72;100.00;98431.94;10215065;29;20060;-68
2024/02/09 18:05:46;;;;;;;1999.90;999.90;;;;;;;10.60;100.00;98433.94;10213132;29;20052;-68
2024/02/09 18:10:50;;;;;;;1999.90;999.90;;;;;;;10.47;100.00;98427.41;10214054;29;20062;-68
2024/02/09 18:15:52;;;;;;;1999.90;999.90;;;;;;;10.40;100.00;98429.78;10216788;29;20079;-68
2024/02/09 18:20:58;;;;;;;1999.90;999.90;;;;;;;10.25;100.00;98429.38;10227861;29;20056;-68
2024/02/09 18:26:00;;;;;;;1999.90;999.90;;;;;;;10.27;100.00;98431.84;10227291;29;20480;-68
2024/02/09 18:31:03;;;;;;;1999.90;999.90;;;;;;;10.03;100.00;98448.88;10226238;29;20074;-68
2024/02/09 18:36:06;;;;;;;1999.90;999.90;;;;;;;10.08;100.00;98445.84;10227838;29;20055;-68
2024/02/09 18:41:08;;;;;;;1999.90;999.90;;;;;;;9.91;100.00;98456.06;10226808;29;20052;-68
2024/02/09 18:46:11;;;;;;;1999.90;999.90;;;;;;;9.83;100.00;98448.94;10226870;29;20396;-68
2024/02/09 18:51:13;;;;;;;1999.90;999.90;;;;;;;10.00;100.00;98436.94;10227155;29;20079;-68
2024/02/09 18:56:16;;;;;;;1999.90;999.90;;;;;;;10.02;100.00;98444.63;10226969;29;20557;-68
2024/02/09 19:01:18;;;;;;;1999.90;999.90;;;;;;;9.93;100.00;98437.63;10227090;29;20058;-68
2024/02/09 19:06:21;;;;;;;1999.90;999.90;;;;;;;9.70;100.00;98445.78;10225857;29;20062;-68
2024/02/09 19:11:23;;;;;;;1999.90;999.90;;;;;;;9.58;100.00;98444.28;10225425;29;20099;-68
2024/02/09 19:16:26;;;;;;;1999.90;999.90;;;;;;;9.73;100.00;98435.03;10225006;29;20478;-68
2024/02/09 19:21:28;;;;;;;1999.90;999.90;;;;;;;9.60;100.00;98432.75;10226095;29;20056;-68
2024/02/09 19:26:33;;;;;;;1999.90;999.90;;;;;;;9.43;100.00;98446.47;10225298;29;20099;-68
2024/02/09 19:31:36;;;;;;;1999.90;999.90;;;;;;;9.77;100.00;98439.03;10218862;29;20460;-68
2024/02/09 19:36:38;;;;;;;1999.90;999.90;;;;;;;9.71;100.00;98447.44;10219315;29;20075;-68
2024/02/09 19:41:44;;;;;;;1999.90;999.90;;;;;;;9.83;100.00;98454.16;10220018;29;20048;-68
2024/02/09 19:46:50;;;;;;;1999.90;999.90;;;;;;;9.79;100.00;98452.78;10219860;29;20112;-68
2024/02/09 19:51:54;;;;;;;1999.90;999.90;;;;;;;9.78;100.00;98447.69;10219584;29;20058;-68
2024/02/09 19:56:56;;;;;;;1999.90;999.90;;;;;;;9.75;100.00;98446.19;10219436;29;20052;-68
2024/02/09 20:01:59;;;;;;;1999.90;999.90;;;;;;;9.71;100.00;98444.00;10219348;29;20051;-68
2024/02/09 20:07:05;;;;;;;1999.90;999.90;;;;;;;9.68;100.00;98452.94;10218082;29;20131;-68
2024/02/09 20:12:09;;;;;;;1999.90;999.90;;;;;;;9.66;100.00;98449.63;10218093;29;20066;-68
2024/02/09 20:17:12;;;;;;;1999.90;999.90;;;;;;;9.58;100.00;98436.44;10218701;29;20054;-68
2024/02/09 20:22:15;;;;;;;1999.90;999.90;;;;;;;9.67;100.00;98431.22;10218483;29;20062;-68
2024/02/09 20:27:18;;;;;;;1999.90;999.90;;;;;;;9.76;100.00;98433.94;10217172;29;20058;-68
2024/02/09 20:32:22;;;;;;;1999.90;999.90;;;;;;;9.85;100.00;98436.53;10218050;29;20043;-68
2024/02/09 20:37:25;;;;;;;1999.90;999.90;;;;;;;9.75;100.00;98440.13;10217939;29;20051;-68
2024/02/09 20:42:27;;;;;;;1999.90;999.90;;;;;;;9.52;100.00;98456.13;10216956;29;20052;-68
2024/02/09 20:47:29;;;;;;;1999.90;999.90;;;;;;;9.67;100.00;98456.53;10216916;29;20066;-68
2024/02/09 20:52:32;;;;;;;1999.90;999.90;;;;;;;9.74;100.00;98448.94;10216093;29;20099;-68
2024/02/09 20:57:37;;;;;;;1999.90;999.90;;;;;;;9.89;100.00;98455.38;10215355;29;20110;-68
2024/02/09 21:02:39;;;;;;;1999.90;999.90;;;;;;;9.70;100.00;98445.78;10215350;29;20468;-68
2024/02/09 21:07:43;;;;;;;1999.90;999.90;;;;;;;9.71;100.00;98449.22;10216539;29;20062;-68
2024/02/09 21:12:46;;;;;;;1999.90;999.90;;;;;;;9.62;100.00;98450.88;10216466;29;20054;-68
2024/02/09 21:17:49;;;;;;;1999.90;999.90;;;;;;;9.34;100.00;98458.59;10215210;29;20056;-68
2024/02/09 21:22:54;;;;;;;1999.90;999.90;;;;;;;9.41;100.00;98456.25;10215096;29;20047;-68
2024/02/09 21:27:57;;;;;;;1999.90;999.90;;;;;;;9.43;100.00;98467.38;10216125;29;20048;-68
2024/02/09 21:33:01;;;;;;;1999.90;999.90;;;;;;;9.60;100.00;98458.03;10215866;29;20051;-68
2024/02/09 21:38:04;;;;;;;1999.90;999.90;;;;;;;9.38;100.00;98457.38;10215646;29;20058;-68
2024/02/09 21:43:07;;;;;;;1999.90;999.90;;;;;;;9.40;100.00;98457.22;10215570;29;20048;-68
2024/02/09 21:48:10;;;;;;;1999.90;999.90;;;;;;;9.61;100.00;98459.69;10215368;29;20108;-68
2024/02/09 21:53:15;;;;;;;1999.90;999.90;;;;;;;9.38;100.00;98459.13;10213704;29;20095;-68
2024/02/09 21:58:17;;;;;;;1999.90;999.90;;;;;;;9.22;100.00;98465.72;10213991;29;20058;-68
2024/02/09 22:03:20;;;;;;;1999.90;999.90;;;;;;;9.45;100.00;98468.09;10214975;29;20107;-68
2024/02/09 22:08:23;;;;;;;1999.90;999.90;;;;;;;9.43;100.00;98476.06;10214652;29;20062;-68
2024/02/09 22:13:25;;;;;;;1999.90;999.90;;;;;;;9.22;100.00;98475.34;10214720;29;20082;-68
2024/02/09 22:18:29;;;;;;;1999.90;999.90;;;;;;;9.39;100.00;98471.25;10214684;29;20110;-68
2024/02/09 22:23:34;;;;;;;1999.90;999.90;;;;;;;9.65;100.00;98477.56;10214599;29;20048;-68
2024/02/09 22:28:36;;;;;;;1999.90;999.90;;;;;;;9.77;100.00;98478.22;10214607;29;20071;-68
2024/02/09 22:33:39;;;;;;;1999.90;999.90;;;;;;;9.59;100.00;98472.88;10196615;29;20052;-68
2024/02/09 22:38:42;;;;;;;1999.90;999.90;;;;;;;9.55;100.00;98474.13;10213683;29;20447;-68
2024/02/09 22:43:45;;;;;;;1999.90;999.90;;;;;;;9.57;100.00;98468.78;10214053;29;20400;-68
2024/02/09 22:48:47;;;;;;;1999.90;999.90;;;;;;;9.46;100.00;98465.34;10212986;29;20056;-68
2024/02/09 22:53:51;;;;;;;1999.90;999.90;;;;;;;9.33;100.00;98469.16;10214006;29;20106;-68
2024/02/09 22:58:55;;;;;;;1999.90;999.90;;;;;;;9.17;100.00;98477.56;10213315;29;20519;-68
2024/02/09 23:03:59;;;;;;;1999.90;999.90;;;;;;;9.35;100.00;98482.94;10216726;29;20051;-68
2024/02/09 23:09:02;;;;;;;1999.90;999.90;;;;;;;9.21;100.00;98486.75;10220515;29;20408;-68
2024/02/09 23:14:04;;;;;;;1999.90;999.90;;;;;;;8.83;100.00;98498.78;10220433;29;20048;-68
2024/02/09 23:19:09;;;;;;;1999.90;999.90;;;;;;;8.91;100.00;98504.97;10220355;29;20502;-68
2024/02/09 23:24:12;;;;;;;1999.90;999.90;;;;;;;8.98;100.00;98510.50;10220703;29;20048;-68
2024/02/09 23:29:14;;;;;;;1999.90;999.90;;;;;;;8.95;100.00;98504.72;10220548;29;20051;-68
2024/02/09 23:34:19;;;;;;;1999.90;999.90;;;;;;;8.98;100.00;98513.09;10219086;29;20048;-68
2024/02/09 23:39:22;;;;;;;1999.90;999.90;;;;;;;9.16;100.00;98518.47;10218418;29;20566;-68
2024/02/09 23:44:24;;;;;;;1999.90;999.90;;;;;;;9.01;100.00;98517.22;10219333;29;20506;-68
2024/02/09 23:49:27;;;;;;;1999.90;999.90;;;;;;;9.18;100.00;98516.59;10219126;29;20385;-68
2024/02/09 23:54:29;;;;;;;1999.90;999.90;;;;;;;9.06;100.00;98518.47;10218074;29;20484;-68
2024/02/09 23:59:32;;;;;;;1999.90;999.90;;;;;;;9.03;100.00;98515.31;10219415;29;20051;-68
